createdAt,value
2022-09-14T00:02:52.951Z,15.07
2022-09-14T00:07:57.578Z,15.13
2022-09-14T00:13:02.632Z,15.23
2022-09-14T00:18:08.283Z,15.30
2022-09-14T00:23:13.255Z,15.37
2022-09-14T00:28:17.784Z,15.34
2022-09-14T00:33:22.532Z,15.39
2022-09-14T00:38:28.916Z,15.32
2022-09-14T00:43:33.898Z,15.20
2022-09-14T00:48:37.586Z,14.94
2022-09-14T00:53:42.003Z,14.89
2022-09-14T00:58:50.016Z,14.80
2022-09-14T01:03:54.893Z,14.72
2022-09-14T01:09:05.781Z,14.58
2022-09-14T01:14:21.181Z,14.62
2022-09-14T01:20:02.735Z,14.61
2022-09-14T01:25:22.577Z,14.94
2022-09-14T01:30:26.724Z,14.94
2022-09-14T01:35:49.303Z,15.30
2022-09-14T01:40:54.302Z,15.19
2022-09-14T01:46:03.398Z,15.56
2022-09-14T01:51:14.211Z,15.18
2022-09-14T01:56:27.687Z,14.99
2022-09-14T02:01:50.473Z,15.04
2022-09-14T02:06:58.093Z,15.09
2022-09-14T02:12:01.916Z,15.10
2022-09-14T02:17:09.234Z,14.91
2022-09-14T02:22:13.865Z,14.68
2022-09-14T02:27:17.997Z,14.60
2022-09-14T02:32:35.645Z,14.58
2022-09-14T02:38:22.314Z,14.61
2022-09-14T02:43:48.690Z,14.61
2022-09-14T02:49:13.746Z,14.48
2022-09-14T02:54:36.002Z,14.59
2022-09-14T02:59:41.052Z,14.53
2022-09-14T03:04:45.763Z,14.67
2022-09-14T03:09:51.423Z,14.74
2022-09-14T03:14:55.841Z,14.92
2022-09-14T03:20:00.621Z,14.76
2022-09-14T03:25:05.585Z,14.71
2022-09-14T03:30:10.605Z,14.69
2022-09-14T03:35:15.496Z,14.76
2022-09-14T03:40:22.098Z,14.60
2022-09-14T03:45:26.215Z,14.59
2022-09-14T03:50:30.891Z,14.42
2022-09-14T03:55:35.959Z,14.44
2022-09-14T04:00:42.295Z,14.39
2022-09-14T04:05:57.631Z,14.32
2022-09-14T04:11:01.775Z,14.33
2022-09-14T04:16:06.109Z,14.33
2022-09-14T04:21:16.329Z,14.44
2022-09-14T04:26:22.710Z,14.46
2022-09-14T04:31:27.731Z,14.52
2022-09-14T04:36:32.409Z,14.46
2022-09-14T04:41:36.747Z,14.49
2022-09-14T04:46:46.658Z,14.49
2022-09-14T04:51:51.232Z,14.53
2022-09-14T04:56:55.687Z,14.65
2022-09-14T05:01:59.860Z,14.70
2022-09-14T05:07:04.200Z,14.77
2022-09-14T05:12:09.253Z,14.85
2022-09-14T05:17:14.029Z,15.00
2022-09-14T05:22:18.906Z,15.35
2022-09-14T05:27:23.543Z,15.91
2022-09-14T05:32:27.321Z,16.15
2022-09-14T05:37:32.326Z,16.32
2022-09-14T05:42:37.118Z,16.48
2022-09-14T05:47:42.013Z,16.73
2022-09-14T05:52:45.999Z,16.87
2022-09-14T05:57:51.383Z,16.98
2022-09-14T06:02:56.764Z,16.66
2022-09-14T06:08:01.812Z,16.75
2022-09-14T06:13:06.251Z,16.99
2022-09-14T06:18:11.222Z,17.20
2022-09-14T06:23:15.740Z,16.81
2022-09-14T06:28:19.560Z,16.88
2022-09-14T06:33:24.565Z,16.84
2022-09-14T06:38:30.277Z,16.79
2022-09-14T06:43:38.205Z,16.72
2022-09-14T06:48:45.915Z,17.16
2022-09-14T06:53:51.887Z,17.01
2022-09-14T06:58:56.621Z,17.09
2022-09-14T07:04:02.913Z,17.09
2022-09-14T07:09:06.697Z,17.26
2022-09-14T07:14:11.470Z,17.43
2022-09-14T07:19:16.481Z,17.71
2022-09-14T07:24:22.198Z,17.61
2022-09-14T07:29:26.022Z,17.98
2022-09-14T07:34:30.385Z,18.06
2022-09-14T07:39:34.585Z,18.02
2022-09-14T07:44:39.524Z,18.10
2022-09-14T07:49:42.838Z,18.23
2022-09-14T07:54:47.819Z,18.44
2022-09-14T07:59:52.479Z,18.46
2022-09-14T08:04:56.576Z,18.97
2022-09-14T08:10:02.447Z,18.60
2022-09-14T08:15:07.192Z,19.17
2022-09-14T08:20:11.922Z,18.91
2022-09-14T08:25:16.067Z,19.26
2022-09-14T08:30:20.604Z,18.96
2022-09-14T08:35:40.781Z,18.75
2022-09-14T08:40:48.995Z,19.11
2022-09-14T08:45:57.206Z,19.65
2022-09-14T08:51:01.702Z,19.63
2022-09-14T08:56:19.797Z,19.60
2022-09-14T09:01:38.078Z,19.88
2022-09-14T09:07:01.615Z,19.98
2022-09-14T09:12:06.902Z,20.08
2022-09-14T09:17:31.785Z,20.13
2022-09-14T09:22:41.950Z,19.61
2022-09-14T09:27:46.700Z,20.05
2022-09-14T09:32:50.828Z,19.80
2022-09-14T09:38:26.210Z,20.20
2022-09-14T09:43:48.507Z,20.03
2022-09-14T09:48:54.200Z,20.01
2022-09-14T09:54:14.294Z,19.89
2022-09-14T09:59:29.927Z,20.39
2022-09-14T10:04:36.101Z,19.94
2022-09-14T10:09:41.120Z,19.53
2022-09-14T10:14:45.898Z,20.09
2022-09-14T10:19:59.861Z,19.91
2022-09-14T10:25:23.324Z,20.55
2022-09-14T10:30:43.399Z,21.09
2022-09-14T10:35:56.463Z,20.92
2022-09-14T10:41:12.237Z,20.38
2022-09-14T10:46:22.576Z,20.25
2022-09-14T10:51:34.069Z,19.93
2022-09-14T10:56:56.142Z,20.01
2022-09-14T11:02:25.502Z,20.49
2022-09-14T11:07:45.139Z,19.90
2022-09-14T11:13:19.680Z,20.38
2022-09-14T11:18:32.407Z,20.83
2022-09-14T11:23:48.372Z,21.13
2022-09-14T11:29:02.283Z,20.97
2022-09-14T11:34:32.639Z,21.04
2022-09-14T11:39:47.640Z,20.88
2022-09-14T11:45:00.035Z,21.29
2022-09-14T11:50:23.442Z,21.66
2022-09-14T11:55:28.464Z,21.19
2022-09-14T12:00:50.754Z,20.92
2022-09-14T12:05:55.564Z,20.71
2022-09-14T12:11:12.531Z,20.53
2022-09-14T12:16:16.675Z,20.31
2022-09-14T12:21:30.391Z,20.65
2022-09-14T12:26:37.285Z,20.54
2022-09-14T12:31:49.688Z,21.22
2022-09-14T12:36:54.147Z,21.29
2022-09-14T12:41:57.943Z,21.01
2022-09-14T12:47:29.556Z,20.60
2022-09-14T12:52:58.733Z,21.23
2022-09-14T12:58:27.757Z,20.50
2022-09-14T13:03:47.681Z,19.88
2022-09-14T13:08:56.778Z,20.01
2022-09-14T13:14:02.694Z,20.05
2022-09-14T13:19:12.975Z,20.47
2022-09-14T13:24:32.051Z,20.10
2022-09-14T13:29:36.491Z,20.39
2022-09-14T13:34:40.909Z,20.81
2022-09-14T13:39:52.143Z,20.87
2022-09-14T13:44:56.164Z,20.92
2022-09-14T13:50:00.937Z,20.84
2022-09-14T13:55:22.002Z,20.72
2022-09-14T14:00:26.772Z,20.79
2022-09-14T14:05:37.007Z,20.01
2022-09-14T14:10:47.291Z,20.33
2022-09-14T14:15:53.196Z,21.13
2022-09-14T14:21:17.008Z,20.90
2022-09-14T14:26:30.109Z,21.34
2022-09-14T14:31:35.095Z,21.45
2022-09-14T14:36:39.283Z,20.58
2022-09-14T14:41:43.384Z,20.79
2022-09-14T14:46:48.166Z,20.60
2022-09-14T14:51:53.169Z,20.17
2022-09-14T14:56:57.675Z,20.18
2022-09-14T15:02:01.463Z,20.04
2022-09-14T15:07:06.241Z,20.36
2022-09-14T15:12:11.191Z,20.19
2022-09-14T15:17:14.807Z,19.90
2022-09-14T15:22:20.778Z,19.54
2022-09-14T15:27:24.566Z,19.66
2022-09-14T15:32:29.320Z,19.46
2022-09-14T15:37:34.196Z,19.53
2022-09-14T15:42:38.503Z,19.28
2022-09-14T15:47:44.484Z,19.19
2022-09-14T15:52:49.232Z,19.11
2022-09-14T15:57:53.631Z,19.05
2022-09-14T16:02:58.650Z,19.05
2022-09-14T16:08:03.302Z,19.14
2022-09-14T16:13:08.328Z,19.03
2022-09-14T16:18:13.434Z,19.05
2022-09-14T16:23:17.653Z,19.02
2022-09-14T16:28:22.153Z,19.04
2022-09-14T16:33:26.479Z,18.88
2022-09-14T16:38:32.510Z,18.80
2022-09-14T16:43:37.583Z,18.71
2022-09-14T16:48:43.803Z,18.64
2022-09-14T16:53:48.622Z,18.50
2022-09-14T16:58:54.480Z,18.38
2022-09-14T17:04:01.499Z,18.31
2022-09-14T17:09:08.680Z,18.19
2022-09-14T17:14:18.070Z,18.12
2022-09-14T17:19:22.674Z,18.11
2022-09-14T17:24:27.247Z,18.05
2022-09-14T17:29:33.528Z,18.02
2022-09-14T17:34:38.677Z,17.95
2022-09-14T17:39:43.045Z,17.83
2022-09-14T17:44:48.649Z,17.88
2022-09-14T17:49:53.046Z,17.93
2022-09-14T17:54:57.841Z,17.87
2022-09-14T18:00:02.851Z,17.80
2022-09-14T18:05:09.187Z,17.75
2022-09-14T18:10:17.923Z,17.74
2022-09-14T18:15:24.117Z,17.64
2022-09-14T18:20:28.874Z,17.59
2022-09-14T18:25:32.935Z,17.54
2022-09-14T18:30:40.492Z,17.46
2022-09-14T18:35:47.901Z,17.44
2022-09-14T18:40:52.546Z,17.46
2022-09-14T18:45:57.599Z,17.46
2022-09-14T18:51:03.572Z,17.39
2022-09-14T18:56:13.542Z,17.34
2022-09-14T19:01:18.630Z,17.42
2022-09-14T19:06:23.938Z,17.33
2022-09-14T19:11:31.125Z,17.11
2022-09-14T19:16:36.158Z,17.06
2022-09-14T19:21:40.949Z,17.01
2022-09-14T19:26:50.917Z,16.95
2022-09-14T19:31:56.123Z,16.89
2022-09-14T19:37:01.631Z,16.91
2022-09-14T19:42:06.344Z,16.92
2022-09-14T19:47:11.363Z,16.97
2022-09-14T19:52:16.147Z,16.92
2022-09-14T19:57:21.023Z,16.95
2022-09-14T20:02:25.151Z,16.91
2022-09-14T20:07:30.362Z,16.85
2022-09-14T20:12:35.438Z,16.89
2022-09-14T20:17:40.192Z,16.90
2022-09-14T20:22:45.122Z,16.76
2022-09-14T20:27:48.415Z,16.78
2022-09-14T20:32:53.170Z,16.69
2022-09-14T20:37:58.057Z,16.72
2022-09-14T20:43:01.425Z,16.68
2022-09-14T20:48:06.184Z,16.59
2022-09-14T20:53:11.202Z,16.52
2022-09-14T20:58:15.704Z,16.51
2022-09-14T21:03:20.209Z,16.43
2022-09-14T21:08:24.988Z,16.41
2022-09-14T21:13:29.366Z,16.39
2022-09-14T21:18:34.167Z,16.27
2022-09-14T21:23:39.467Z,16.25
2022-09-14T21:28:44.183Z,16.32
2022-09-14T21:34:02.226Z,16.34
2022-09-14T21:39:12.474Z,16.33
2022-09-14T21:44:17.226Z,16.39
2022-09-14T21:49:22.258Z,16.45
2022-09-14T21:54:27.042Z,16.38
2022-09-14T21:59:31.447Z,16.29
2022-09-14T22:04:36.482Z,16.35
2022-09-14T22:09:41.255Z,16.40
2022-09-14T22:14:46.021Z,16.37
2022-09-14T22:19:53.460Z,16.19
2022-09-14T22:24:58.254Z,16.04
2022-09-14T22:30:03.126Z,15.82
2022-09-14T22:35:08.080Z,15.63
2022-09-14T22:40:12.464Z,15.46
2022-09-14T22:45:17.215Z,15.22
2022-09-14T22:50:22.114Z,15.12
2022-09-14T22:55:26.742Z,15.12
2022-09-14T23:00:31.425Z,15.08
2022-09-14T23:05:37.118Z,15.02
2022-09-14T23:10:41.502Z,15.04
2022-09-14T23:15:46.624Z,15.04
2022-09-14T23:20:50.772Z,15.03
2022-09-14T23:25:54.902Z,15.04
2022-09-14T23:30:59.160Z,14.97
2022-09-14T23:36:03.133Z,14.84
2022-09-14T23:41:07.541Z,14.72
2022-09-14T23:46:13.549Z,14.72
2022-09-14T23:51:18.311Z,14.74
2022-09-14T23:56:23.168Z,14.84
